createdAt,value
2018-07-09T00:00:11.928Z,4.73
2018-07-09T00:02:40.782Z,4.73
2018-07-09T00:05:09.772Z,4.53
2018-07-09T00:07:38.459Z,4.57
2018-07-09T00:10:07.232Z,4.83
2018-07-09T00:12:35.939Z,5.07
2018-07-09T00:15:05.029Z,4.60
2018-07-09T00:17:33.732Z,4.90
2018-07-09T00:20:02.596Z,4.80
2018-07-09T00:22:31.388Z,5.20
2018-07-09T00:25:00.029Z,5.10
2018-07-09T00:27:28.833Z,4.50
2018-07-09T00:29:57.630Z,5.47
2018-07-09T00:32:26.356Z,4.73
2018-07-09T00:34:55.059Z,4.40
2018-07-09T00:37:23.793Z,4.63
2018-07-09T00:39:52.538Z,4.50
2018-07-09T00:42:21.856Z,4.23
2018-07-09T00:44:50.586Z,4.77
2018-07-09T00:47:19.478Z,4.80
2018-07-09T00:49:48.154Z,5.23
2018-07-09T00:52:16.964Z,5.03
2018-07-09T00:54:46.021Z,5.00
2018-07-09T00:57:14.720Z,4.87
2018-07-09T00:59:43.376Z,5.20
2018-07-09T01:02:12.194Z,4.70
2018-07-09T01:04:40.894Z,4.93
2018-07-09T01:07:09.584Z,4.83
2018-07-09T01:09:38.270Z,4.63
2018-07-09T01:12:12.547Z,5.07
2018-07-09T01:14:41.950Z,4.80
2018-07-09T01:17:10.660Z,4.97
2018-07-09T01:19:39.429Z,5.40
2018-07-09T01:22:08.185Z,5.30
2018-07-09T01:24:38.229Z,5.27
2018-07-09T01:27:06.979Z,5.20
2018-07-09T01:29:35.772Z,5.00
2018-07-09T01:32:04.528Z,4.87
2018-07-09T01:34:33.227Z,5.03
2018-07-09T01:37:01.877Z,5.03
2018-07-09T01:39:30.577Z,5.07
2018-07-09T01:41:59.273Z,5.03
2018-07-09T01:44:28.154Z,5.00
2018-07-09T01:46:56.867Z,5.20
2018-07-09T01:49:25.489Z,5.50
2018-07-09T01:51:54.027Z,5.40
2018-07-09T01:54:23.152Z,5.27
2018-07-09T01:56:51.967Z,5.20
2018-07-09T01:59:20.656Z,5.20
2018-07-09T02:01:49.117Z,5.00
2018-07-09T02:04:17.857Z,5.43
2018-07-09T02:06:46.639Z,5.07
2018-07-09T02:09:15.464Z,5.60
2018-07-09T02:11:44.157Z,5.77
2018-07-09T02:14:12.816Z,5.30
2018-07-09T02:16:41.508Z,5.57
2018-07-09T02:19:10.421Z,5.63
2018-07-09T02:21:39.423Z,5.30
2018-07-09T02:24:08.300Z,4.80
2018-07-09T02:26:37.089Z,5.50
2018-07-09T02:29:05.985Z,5.50
2018-07-09T02:31:34.685Z,5.03
2018-07-09T02:34:03.344Z,5.63
2018-07-09T02:36:32.140Z,5.03
2018-07-09T02:39:00.812Z,5.67
2018-07-09T02:41:29.599Z,5.37
2018-07-09T02:43:58.284Z,5.30
2018-07-09T02:46:26.897Z,5.63
2018-07-09T02:48:55.665Z,5.03
2018-07-09T02:51:24.422Z,5.30
2018-07-09T02:53:53.094Z,5.60
2018-07-09T02:56:21.777Z,5.17
2018-07-09T02:58:50.084Z,5.30
2018-07-09T03:01:18.852Z,5.17
2018-07-09T03:03:47.713Z,4.80
2018-07-09T03:06:16.469Z,5.03
2018-07-09T03:08:45.140Z,5.27
2018-07-09T03:11:13.891Z,5.07
2018-07-09T03:13:42.184Z,5.00
2018-07-09T03:16:10.905Z,4.77
2018-07-09T03:18:39.670Z,4.70
2018-07-09T03:21:08.560Z,5.17
2018-07-09T03:23:37.281Z,4.80
2018-07-09T03:26:06.073Z,5.10
2018-07-09T03:28:34.861Z,4.70
2018-07-09T03:31:03.652Z,4.90
2018-07-09T03:33:32.325Z,5.13
2018-07-09T03:36:01.880Z,5.10
2018-07-09T03:38:30.629Z,5.00
2018-07-09T03:40:59.297Z,4.70
2018-07-09T03:43:28.121Z,5.00
2018-07-09T03:45:56.749Z,5.00
2018-07-09T03:48:25.397Z,5.37
2018-07-09T03:50:54.049Z,4.93
2018-07-09T03:53:22.761Z,4.80
2018-07-09T03:55:51.393Z,5.37
2018-07-09T03:58:20.208Z,5.30
2018-07-09T04:00:48.995Z,4.87
2018-07-09T04:03:17.657Z,4.70
2018-07-09T04:05:46.574Z,4.87
2018-07-09T04:08:15.324Z,5.20
2018-07-09T04:10:44.048Z,5.03
2018-07-09T04:13:12.711Z,5.23
2018-07-09T04:15:41.438Z,5.13
2018-07-09T04:18:10.101Z,4.90
2018-07-09T04:20:38.892Z,4.97
2018-07-09T04:23:07.599Z,4.93
2018-07-09T04:25:36.304Z,4.90
2018-07-09T04:28:05.267Z,4.53
2018-07-09T04:30:34.871Z,4.93
2018-07-09T04:33:03.588Z,4.90
2018-07-09T04:35:32.246Z,5.17
2018-07-09T04:38:00.978Z,5.03
2018-07-09T04:40:29.693Z,5.30
2018-07-09T04:42:58.609Z,5.20
2018-07-09T04:45:27.373Z,4.93
2018-07-09T04:47:56.108Z,5.10
2018-07-09T04:50:24.816Z,5.50
2018-07-09T04:52:53.549Z,5.07
2018-07-09T04:55:22.416Z,4.60
2018-07-09T04:57:51.114Z,5.57
2018-07-09T05:00:19.852Z,4.77
2018-07-09T05:02:48.494Z,5.47
2018-07-09T05:05:17.197Z,4.80
2018-07-09T05:07:45.986Z,4.87
2018-07-09T05:10:14.796Z,4.70
2018-07-09T05:12:43.589Z,5.33
2018-07-09T05:15:12.252Z,4.90
2018-07-09T05:17:41.858Z,5.03
2018-07-09T05:20:10.647Z,4.67
2018-07-09T05:22:39.428Z,4.87
2018-07-09T05:25:08.272Z,4.90
2018-07-09T05:27:37.109Z,5.33
2018-07-09T05:30:06.155Z,5.23
2018-07-09T05:32:34.893Z,5.37
2018-07-09T05:35:03.752Z,4.87
2018-07-09T05:37:32.477Z,5.00
2018-07-09T05:40:01.394Z,4.60
2018-07-09T05:42:30.258Z,4.77
2018-07-09T05:44:58.987Z,4.63
2018-07-09T05:47:28.349Z,4.50
2018-07-09T05:49:57.659Z,4.47
2018-07-09T05:52:26.304Z,4.60
2018-07-09T05:54:55.021Z,4.73
2018-07-09T05:57:23.892Z,4.57
2018-07-09T05:59:52.595Z,4.93
2018-07-09T06:02:21.268Z,4.50
2018-07-09T06:04:49.952Z,4.27
2018-07-09T06:07:19.537Z,4.83
2018-07-09T06:09:48.340Z,4.97
2018-07-09T06:12:17.127Z,4.67
2018-07-09T06:14:45.765Z,4.33
2018-07-09T06:17:14.425Z,4.30
2018-07-09T06:19:43.091Z,4.60
2018-07-09T06:22:11.901Z,5.17
2018-07-09T06:24:40.761Z,4.53
2018-07-09T06:27:09.602Z,4.17
2018-07-09T06:29:38.342Z,3.73
2018-07-09T06:32:07.128Z,4.33
2018-07-09T06:34:35.802Z,4.33
2018-07-09T06:37:04.688Z,3.80
2018-07-09T06:39:33.427Z,4.20
2018-07-09T06:42:02.064Z,4.00
2018-07-09T06:44:30.773Z,3.90
2018-07-09T06:46:59.581Z,4.50
2018-07-09T06:49:28.236Z,3.73
2018-07-09T06:51:57.773Z,4.37
2018-07-09T06:54:26.502Z,4.10
2018-07-09T06:56:55.169Z,4.50
2018-07-09T06:59:23.896Z,4.70
2018-07-09T07:01:52.644Z,4.33
2018-07-09T07:04:21.327Z,4.70
2018-07-09T07:06:50.214Z,4.33
2018-07-09T07:09:18.847Z,4.93
2018-07-09T07:11:47.481Z,4.23
2018-07-09T07:14:16.292Z,4.77
2018-07-09T07:16:45.057Z,4.80
2018-07-09T07:19:13.793Z,4.90
2018-07-09T07:21:42.404Z,4.72
2018-07-09T07:24:11.125Z,4.37
2018-07-09T07:26:39.867Z,4.50
2018-07-09T07:29:08.714Z,4.67
2018-07-09T07:31:37.404Z,4.40
2018-07-09T07:34:06.121Z,5.00
2018-07-09T07:36:34.736Z,4.50
2018-07-09T07:39:03.604Z,4.37
2018-07-09T07:41:32.238Z,4.55
2018-07-09T07:44:00.948Z,4.90
2018-07-09T07:46:29.736Z,4.47
2018-07-09T07:48:58.321Z,4.40
2018-07-09T07:51:26.950Z,5.40
2018-07-09T07:53:55.647Z,4.70
2018-07-09T07:56:24.274Z,4.23
2018-07-09T07:58:53.002Z,4.87
2018-07-09T08:01:21.817Z,4.27
2018-07-09T08:03:50.445Z,4.35
2018-07-09T08:06:19.136Z,4.77
2018-07-09T08:08:47.810Z,4.70
2018-07-09T08:11:16.493Z,4.20
2018-07-09T08:13:45.177Z,4.03
2018-07-09T08:24:59.252Z,4.03
2018-07-09T08:27:28.078Z,4.20
2018-07-09T08:29:56.729Z,4.40
2018-07-09T08:32:25.638Z,4.00
2018-07-09T08:34:54.474Z,4.77
2018-07-09T08:37:23.104Z,4.50
2018-07-09T08:39:51.884Z,4.37
2018-07-09T08:42:20.518Z,4.00
2018-07-09T08:44:49.253Z,4.10
2018-07-09T08:47:17.886Z,4.20
2018-07-09T08:49:46.585Z,4.03
2018-07-09T08:52:14.996Z,4.13
2018-07-09T08:54:43.776Z,3.73
2018-07-09T08:57:12.576Z,4.10
2018-07-09T08:59:41.240Z,4.10
2018-07-09T09:02:10.037Z,4.12
2018-07-09T09:04:38.683Z,3.70
2018-07-09T09:07:07.452Z,4.10
2018-07-09T09:09:36.109Z,3.80
2018-07-09T09:12:04.784Z,4.07
2018-07-09T09:14:33.460Z,3.80
2018-07-09T09:17:02.218Z,3.30
2018-07-09T09:19:30.905Z,3.80
2018-07-09T09:21:59.685Z,3.80
2018-07-09T09:24:28.605Z,3.63
2018-07-09T09:26:57.848Z,3.47
2018-07-09T09:29:26.632Z,4.10
2018-07-09T09:31:55.937Z,3.60
2018-07-09T09:34:24.592Z,3.53
2018-07-09T09:36:53.552Z,3.67
2018-07-09T09:39:22.516Z,3.70
2018-07-09T09:41:51.326Z,3.40
2018-07-09T09:44:20.041Z,3.27
2018-07-09T09:46:48.745Z,3.50
2018-07-09T09:49:17.401Z,3.30
2018-07-09T09:51:46.094Z,3.30
2018-07-09T09:54:14.920Z,3.10
2018-07-09T09:56:43.560Z,3.10
2018-07-09T09:59:12.236Z,2.92
2018-07-09T10:01:40.920Z,2.80
2018-07-09T10:04:09.591Z,2.83
2018-07-09T10:06:38.323Z,2.67
2018-07-09T10:09:07.414Z,2.45
2018-07-09T10:11:36.181Z,2.40
2018-07-09T10:14:04.965Z,2.37
2018-07-09T10:16:33.654Z,2.57
2018-07-09T10:19:02.421Z,2.27
2018-07-09T10:21:31.174Z,2.00
2018-07-09T10:23:59.808Z,2.20
2018-07-09T10:26:28.780Z,2.00
2018-07-09T10:28:57.461Z,2.40
2018-07-09T10:31:26.236Z,2.00
2018-07-09T10:33:54.949Z,2.00
2018-07-09T10:36:23.632Z,1.82
2018-07-09T10:38:52.343Z,2.00
2018-07-09T10:41:21.315Z,2.14
2018-07-09T10:43:49.913Z,2.20
2018-07-09T10:46:18.657Z,1.85
2018-07-09T10:48:47.393Z,1.80
2018-07-09T10:51:16.089Z,2.30
2018-07-09T10:53:44.812Z,2.02
2018-07-09T10:56:13.500Z,2.40
2018-07-09T10:58:42.185Z,1.87
2018-07-09T11:01:10.940Z,2.33
2018-07-09T11:03:39.628Z,1.80
2018-07-09T11:06:08.417Z,1.87
2018-07-09T11:08:37.208Z,2.17
2018-07-09T11:11:06.069Z,1.80
2018-07-09T11:13:34.714Z,1.82
2018-07-09T11:16:03.417Z,2.00
2018-07-09T11:18:32.140Z,1.70
2018-07-09T11:21:00.769Z,2.10
2018-07-09T11:23:29.539Z,1.82
2018-07-09T11:25:58.334Z,1.72
2018-07-09T11:28:27.038Z,1.92
2018-07-09T11:30:55.738Z,2.02
2018-07-09T11:33:24.513Z,1.95
2018-07-09T11:35:53.278Z,2.30
2018-07-09T11:38:21.937Z,1.70
2018-07-09T11:40:50.625Z,2.07
2018-07-09T11:43:19.332Z,1.90
2018-07-09T11:45:48.024Z,2.12
2018-07-09T11:48:16.669Z,1.98
2018-07-09T11:50:45.426Z,1.85
2018-07-09T11:53:14.196Z,1.50
2018-07-09T11:55:42.549Z,1.75
2018-07-09T11:58:11.312Z,1.70
2018-07-09T12:00:40.061Z,2.10
2018-07-09T12:03:08.653Z,1.62
2018-07-09T12:05:37.312Z,1.90
2018-07-09T12:08:06.098Z,2.00
2018-07-09T12:10:34.425Z,2.33
2018-07-09T12:13:03.094Z,1.95
2018-07-09T12:15:31.903Z,1.87
2018-07-09T12:18:00.626Z,2.55
2018-07-09T12:20:29.754Z,1.92
2018-07-09T12:22:58.536Z,2.27
2018-07-09T12:25:27.216Z,2.00
2018-07-09T12:27:55.971Z,2.00
2018-07-09T12:30:24.617Z,1.95
2018-07-09T12:32:53.347Z,1.93
2018-07-09T12:35:21.979Z,1.70
2018-07-09T12:37:50.716Z,1.95
2018-07-09T12:40:19.384Z,1.98
2018-07-09T12:42:48.093Z,1.87
2018-07-09T12:45:16.804Z,2.07
2018-07-09T12:47:45.593Z,1.47
2018-07-09T12:50:14.282Z,1.72
2018-07-09T12:52:43.156Z,1.82
2018-07-09T12:55:11.841Z,1.67
2018-07-09T12:57:40.548Z,1.75
2018-07-09T13:00:08.868Z,1.70
2018-07-09T13:02:37.680Z,1.62
2018-07-09T13:05:06.571Z,1.37
2018-07-09T13:07:36.020Z,1.50
2018-07-09T13:10:04.862Z,1.60
2018-07-09T13:12:33.741Z,1.60
2018-07-09T13:15:02.649Z,1.70
2018-07-09T13:17:31.545Z,1.70
2018-07-09T13:20:00.294Z,1.65
2018-07-09T13:22:28.999Z,1.60
2018-07-09T13:24:57.906Z,1.52
2018-07-09T13:27:26.654Z,1.67
2018-07-09T13:29:55.482Z,1.70
2018-07-09T13:32:24.471Z,1.80
2018-07-09T13:34:53.934Z,1.80
2018-07-09T13:37:22.979Z,1.90
2018-07-09T13:39:52.489Z,1.70
2018-07-09T13:42:21.524Z,1.90
2018-07-09T13:44:51.203Z,1.63
2018-07-09T13:47:20.211Z,1.60
2018-07-09T13:49:49.375Z,2.00
2018-07-09T13:52:18.111Z,1.70
2018-07-09T13:54:47.432Z,1.77
2018-07-09T13:57:16.149Z,1.98
2018-07-09T13:59:44.800Z,2.00
2018-07-09T14:02:13.437Z,1.92
2018-07-09T14:04:42.213Z,1.80
2018-07-09T14:07:10.895Z,1.77
2018-07-09T14:09:39.516Z,1.98
2018-07-09T14:12:08.537Z,1.82
2018-07-09T14:14:37.140Z,1.70
2018-07-09T14:17:05.944Z,1.80
2018-07-09T14:20:39.156Z,1.60
2018-07-09T14:23:09.064Z,1.63
2018-07-09T14:25:38.221Z,1.87
2018-07-09T14:28:07.192Z,1.73
2018-07-09T14:30:36.242Z,1.80
2018-07-09T14:33:05.217Z,2.00
2018-07-09T14:35:34.154Z,1.73
2018-07-09T14:38:03.326Z,1.90
2018-07-09T14:40:31.996Z,1.77
2018-07-09T14:43:00.977Z,1.60
2018-07-09T14:45:29.713Z,1.80
2018-07-09T14:47:58.364Z,1.87
2018-07-09T14:50:27.068Z,1.92
2018-07-09T14:52:55.773Z,1.92
2018-07-09T14:55:24.466Z,1.85
2018-07-09T14:57:53.157Z,1.67
2018-07-09T15:00:22.565Z,1.50
2018-07-09T15:02:51.558Z,1.30
2018-07-09T15:05:20.210Z,1.45
2018-07-09T15:07:48.986Z,1.40
2018-07-09T15:10:18.106Z,1.40
2018-07-09T15:12:46.883Z,1.30
2018-07-09T15:15:16.010Z,1.15
2018-07-09T15:17:44.996Z,1.55
2018-07-09T15:20:13.706Z,1.27
2018-07-09T15:22:42.445Z,1.17
2018-07-09T15:25:11.450Z,1.10
2018-07-09T15:27:40.145Z,1.55
2018-07-09T15:30:08.749Z,1.17
2018-07-09T15:32:37.401Z,1.30
2018-07-09T15:35:06.132Z,1.12
2018-07-09T15:37:35.095Z,1.40
2018-07-09T15:40:03.890Z,1.52
2018-07-09T15:42:32.692Z,1.52
2018-07-09T15:45:01.325Z,1.55
2018-07-09T15:47:30.045Z,1.40
2018-07-09T15:49:58.732Z,1.30
2018-07-09T15:52:27.428Z,1.10
2018-07-09T15:54:56.049Z,1.17
2018-07-09T15:57:24.980Z,1.30
2018-07-09T15:59:53.933Z,1.50
2018-07-09T16:02:22.586Z,1.50
2018-07-09T16:04:51.332Z,1.60
2018-07-09T16:07:20.163Z,1.60
2018-07-09T16:09:48.765Z,2.00
2018-07-09T16:12:17.466Z,1.50
2018-07-09T16:14:46.939Z,1.40
2018-07-09T16:17:15.590Z,2.03
2018-07-09T16:19:44.327Z,1.50
2018-07-09T16:22:13.044Z,1.90
2018-07-09T16:24:41.748Z,1.75
2018-07-09T16:27:10.521Z,1.80
2018-07-09T16:29:39.286Z,1.80
2018-07-09T16:32:07.976Z,1.70
2018-07-09T16:34:36.653Z,2.17
2018-07-09T16:37:04.941Z,2.10
2018-07-09T16:39:34.134Z,1.90
2018-07-09T16:42:02.881Z,1.80
2018-07-09T16:44:31.580Z,1.77
2018-07-09T16:47:00.397Z,1.57
2018-07-09T16:49:29.134Z,2.02
2018-07-09T16:51:57.820Z,1.95
2018-07-09T16:54:26.553Z,1.70
2018-07-09T16:56:55.231Z,1.87
2018-07-09T16:59:23.909Z,1.50
2018-07-09T17:01:52.605Z,1.40
2018-07-09T17:04:21.265Z,1.80
2018-07-09T17:06:50.014Z,1.57
2018-07-09T17:09:18.738Z,1.70
2018-07-09T17:11:47.476Z,1.50
2018-07-09T17:14:16.161Z,1.57
2018-07-09T17:16:44.887Z,2.00
2018-07-09T17:19:13.580Z,1.62
2018-07-09T17:21:42.296Z,1.50
2018-07-09T17:24:10.989Z,1.70
2018-07-09T17:26:39.759Z,1.70
2018-07-09T17:29:08.420Z,1.70
2018-07-09T17:31:37.118Z,1.50
2018-07-09T17:34:05.888Z,1.70
2018-07-09T17:36:34.596Z,1.65
2018-07-09T17:39:04.016Z,1.50
2018-07-09T17:41:32.767Z,1.60
2018-07-09T17:44:01.778Z,1.90
2018-07-09T17:46:30.480Z,1.45
2018-07-09T17:48:59.269Z,1.80
2018-07-09T17:51:27.981Z,1.80
2018-07-09T17:53:56.730Z,2.00
2018-07-09T17:56:25.433Z,1.72
2018-07-09T17:58:54.229Z,1.82
2018-07-09T18:01:22.961Z,1.60
2018-07-09T18:03:51.623Z,1.53
2018-07-09T18:06:20.372Z,2.33
2018-07-09T18:08:49.081Z,1.98
2018-07-09T18:11:17.721Z,1.95
2018-07-09T18:13:46.321Z,1.90
2018-07-09T18:16:15.210Z,1.80
2018-07-09T18:18:43.910Z,1.98
2018-07-09T18:21:12.727Z,1.77
2018-07-09T18:23:41.582Z,2.10
2018-07-09T18:26:10.260Z,2.07
2018-07-09T18:28:38.992Z,1.83
2018-07-09T18:31:07.712Z,1.90
2018-07-09T18:33:36.424Z,1.90
2018-07-09T18:36:05.593Z,1.95
2018-07-09T18:38:34.462Z,2.10
2018-07-09T18:41:03.116Z,2.13
2018-07-09T18:43:32.083Z,2.03
2018-07-09T18:46:00.765Z,2.05
2018-07-09T18:48:29.441Z,2.37
2018-07-09T18:50:58.116Z,2.30
2018-07-09T18:53:26.922Z,2.15
2018-07-09T18:55:55.745Z,2.33
2018-07-09T18:58:24.565Z,2.20
2018-07-09T19:00:53.200Z,2.33
2018-07-09T19:03:22.229Z,2.58
2018-07-09T19:07:07.441Z,2.10
2018-07-09T19:09:36.792Z,2.00
2018-07-09T19:12:06.884Z,2.30
2018-07-09T19:14:38.255Z,2.40
2018-07-09T19:17:53.580Z,2.40
2018-07-09T19:20:34.190Z,2.27
2018-07-09T19:23:01.669Z,2.20
2018-07-09T19:25:29.208Z,2.00
2018-07-09T19:27:56.894Z,2.50
2018-07-09T19:30:24.345Z,2.33
2018-07-09T19:32:51.856Z,2.60
2018-07-09T19:35:19.301Z,2.40
2018-07-09T19:37:47.154Z,2.45
2018-07-09T19:40:14.586Z,2.60
2018-07-09T19:42:42.033Z,2.40
2018-07-09T19:45:09.518Z,2.50
2018-07-09T19:47:36.957Z,2.30
2018-07-09T19:50:04.403Z,2.50
2018-07-09T19:52:31.869Z,2.30
2018-07-09T19:54:59.300Z,2.45
2018-07-09T19:57:26.785Z,2.33
2018-07-09T19:59:54.331Z,2.57
2018-07-09T20:02:21.801Z,2.63
2018-07-09T20:04:49.337Z,2.40
2018-07-09T20:07:16.927Z,2.52
2018-07-09T20:09:49.894Z,2.70
2018-07-09T20:12:22.985Z,2.83
2018-07-09T20:14:55.786Z,2.83
2018-07-09T20:17:29.887Z,2.60
2018-07-09T20:19:57.367Z,2.70
2018-07-09T20:22:24.899Z,2.43
2018-07-09T20:24:52.348Z,2.90
2018-07-09T20:27:19.969Z,2.67
2018-07-09T20:29:47.488Z,2.50
2018-07-09T20:32:15.147Z,2.37
2018-07-09T20:34:42.623Z,2.70
2018-07-09T20:37:10.089Z,2.87
2018-07-09T20:39:37.776Z,2.90
2018-07-09T20:42:05.420Z,2.60
2018-07-09T20:44:32.920Z,2.37
2018-07-09T20:47:00.505Z,2.87
2018-07-09T20:49:28.424Z,2.53
2018-07-09T20:51:55.921Z,2.57
2018-07-09T20:54:23.585Z,2.83
2018-07-09T20:56:51.056Z,2.63
2018-07-09T20:59:18.560Z,2.53
2018-07-09T21:01:46.057Z,2.50
2018-07-09T21:04:18.688Z,2.43
2018-07-09T21:06:46.219Z,2.73
2018-07-09T21:09:13.808Z,2.60
2018-07-09T21:11:41.245Z,2.93
2018-07-09T21:14:08.768Z,2.70
2018-07-09T21:16:36.221Z,2.70
2018-07-09T21:19:03.800Z,2.47
2018-07-09T21:21:31.284Z,2.50
2018-07-09T21:23:59.264Z,2.50
2018-07-09T21:26:26.901Z,2.30
2018-07-09T21:28:54.420Z,2.40
2018-07-09T21:31:22.620Z,2.20
2018-07-09T21:33:50.069Z,2.40
2018-07-09T21:36:17.528Z,2.40
2018-07-09T21:38:44.986Z,2.47
2018-07-09T21:41:12.986Z,2.90
2018-07-09T21:43:40.645Z,2.80
2018-07-09T21:46:08.088Z,2.57
2018-07-09T21:48:35.869Z,2.70
2018-07-09T21:51:03.319Z,3.00
2018-07-09T21:53:30.799Z,2.70
2018-07-09T21:55:58.282Z,2.50
2018-07-09T21:58:25.766Z,2.90
2018-07-09T22:00:53.246Z,2.43
2018-07-09T22:03:20.705Z,2.43
2018-07-09T22:05:48.258Z,2.37
2018-07-09T22:08:15.831Z,2.70
2018-07-09T22:10:43.800Z,2.40
2018-07-09T22:13:11.370Z,3.13
2018-07-09T22:15:38.929Z,2.77
2018-07-09T22:18:06.381Z,2.60
2018-07-09T22:20:33.930Z,2.97
2018-07-09T22:23:01.503Z,3.10
2018-07-09T22:25:29.013Z,2.37
2018-07-09T22:27:56.503Z,3.00
2018-07-09T22:30:31.270Z,2.67
2018-07-09T22:33:00.333Z,2.70
2018-07-09T22:35:29.116Z,3.00
2018-07-09T22:37:57.878Z,3.20
2018-07-09T22:40:26.698Z,2.50
2018-07-09T22:42:55.514Z,2.60
2018-07-09T22:45:24.197Z,2.93
2018-07-09T22:47:52.957Z,3.10
2018-07-09T22:50:21.667Z,2.73
2018-07-09T22:52:50.460Z,2.77
2018-07-09T22:55:30.278Z,3.27
2018-07-09T22:57:58.928Z,3.07
2018-07-09T23:00:27.725Z,3.00
2018-07-09T23:03:11.125Z,3.13
2018-07-09T23:05:40.096Z,3.10
2018-07-09T23:08:09.065Z,2.90
2018-07-09T23:13:23.556Z,2.53
2018-07-09T23:17:03.252Z,2.80
2018-07-09T23:20:40.994Z,2.77
2018-07-09T23:23:08.670Z,3.10
2018-07-09T23:25:36.138Z,2.80
2018-07-09T23:28:03.639Z,3.03
2018-07-09T23:30:31.121Z,2.53
2018-07-09T23:32:58.580Z,2.53
2018-07-09T23:35:26.165Z,2.63
2018-07-09T23:37:53.618Z,2.70
2018-07-09T23:40:21.173Z,2.60
2018-07-09T23:42:48.641Z,2.90
2018-07-09T23:45:16.105Z,2.50
2018-07-09T23:47:43.576Z,2.50
2018-07-09T23:50:11.134Z,1.90
2018-07-09T23:52:38.618Z,2.00
2018-07-09T23:55:06.116Z,2.03
2018-07-09T23:59:49.906Z,2.23
